Time;durP1;ratioP1;P1;durP2;ratioP2;P2;SDS_P1;SDS_P2;PMS_P1;PMS_P2;Temp;Humidity;BMP_temperature;BMP_pressure;BME280_temperature;BME280_humidity;BME280_pressure;Samples;Min_cycle;Max_cycle;Signal;HPM_P1;HPM_P2
2024/02/18 00:02:00;;;;;;;230.25;164.25;;;9.80;86.90;;;;;;4965873;28;113166;-53
2024/02/18 00:04:27;;;;;;;224.70;162.73;;;9.90;86.60;;;;;;4966487;28;113204;-53
2024/02/18 00:06:53;;;;;;;217.43;154.77;;;9.90;86.40;;;;;;4965111;28;113614;-53
2024/02/18 00:09:19;;;;;;;225.15;161.55;;;9.90;86.60;;;;;;4965160;28;112808;-53
2024/02/18 00:11:44;;;;;;;227.40;158.70;;;9.90;86.60;;;;;;4966545;28;112947;-53
2024/02/18 00:14:10;;;;;;;232.35;164.60;;;9.90;86.50;;;;;;4964911;28;113156;-53
2024/02/18 00:16:36;;;;;;;221.52;160.85;;;9.90;86.50;;;;;;4965166;28;114779;-53
2024/02/18 00:19:02;;;;;;;235.40;164.73;;;9.90;86.30;;;;;;4964952;28;113669;-53
2024/02/18 00:21:29;;;;;;;227.27;162.40;;;9.80;86.60;;;;;;4966045;28;112934;-53
2024/02/18 00:23:56;;;;;;;206.20;153.65;;;9.80;86.50;;;;;;4965965;28;112733;-53
2024/02/18 00:26:22;;;;;;;218.75;156.90;;;9.90;86.40;;;;;;4964921;28;114331;-53
2024/02/18 00:28:48;;;;;;;219.73;159.98;;;10.00;85.90;;;;;;4965190;28;112669;-53
2024/02/18 00:31:14;;;;;;;230.80;162.43;;;10.00;85.90;;;;;;4965904;28;112864;-53
2024/02/18 00:33:39;;;;;;;243.30;164.52;;;10.00;86.20;;;;;;4966152;28;112799;-53
2024/02/18 00:36:06;;;;;;;229.70;163.63;;;9.90;86.60;;;;;;4964763;28;113187;-53
2024/02/18 00:38:31;;;;;;;208.55;150.45;;;9.80;86.40;;;;;;4960842;28;113788;-53
2024/02/18 00:40:58;;;;;;;215.45;154.15;;;9.80;86.00;;;;;;4953734;28;115309;-53
2024/02/18 00:43:24;;;;;;;224.30;157.65;;;9.80;85.90;;;;;;4956248;28;112784;-52
2024/02/18 00:45:50;;;;;;;234.18;165.23;;;9.60;86.50;;;;;;4955200;28;114704;-53
2024/02/18 00:48:16;;;;;;;228.30;159.80;;;9.50;86.90;;;;;;4956198;28;112929;-53
2024/02/18 00:50:42;;;;;;;218.02;156.30;;;9.60;86.80;;;;;;4956710;28;112867;-53
2024/02/18 00:53:09;;;;;;;208.13;151.50;;;9.80;86.40;;;;;;4959498;28;112952;-53
2024/02/18 00:55:35;;;;;;;220.85;156.77;;;9.90;85.60;;;;;;4958591;28;113410;-53
2024/02/18 00:58:00;;;;;;;214.82;156.85;;;9.80;85.60;;;;;;4964855;28;112870;-53
2024/02/18 01:00:26;;;;;;;249.70;170.45;;;9.80;86.10;;;;;;4965530;28;112660;-53
2024/02/18 01:02:52;;;;;;;241.88;166.50;;;9.80;86.20;;;;;;4965412;28;112780;-53
2024/02/18 01:05:18;;;;;;;229.38;162.73;;;9.80;86.40;;;;;;4964437;28;113447;-53
2024/02/18 01:07:43;;;;;;;215.13;155.55;;;9.70;86.60;;;;;;4959134;28;114041;-53
2024/02/18 01:10:09;;;;;;;232.88;162.77;;;9.80;86.30;;;;;;4968889;28;112478;-53
2024/02/18 01:12:36;;;;;;;213.27;152.23;;;9.80;86.50;;;;;;4968714;28;112933;-53
2024/02/18 01:15:02;;;;;;;207.88;149.82;;;9.80;86.40;;;;;;4967894;28;113153;-53
2024/02/18 01:17:27;;;;;;;220.70;154.55;;;9.80;86.00;;;;;;4967676;28;113512;-53
2024/02/18 01:19:57;;;;;;;242.98;168.20;;;9.80;86.20;;;;;;4968306;28;112736;-53
2024/02/18 01:22:23;;;;;;;244.00;168.77;;;9.70;86.60;;;;;;4968318;28;112870;-53
2024/02/18 01:24:49;;;;;;;260.98;181.60;;;9.60;86.50;;;;;;4967335;28;114639;-53
2024/02/18 01:27:15;;;;;;;232.35;159.82;;;9.60;86.80;;;;;;4967644;28;113000;-52
2024/02/18 01:29:40;;;;;;;199.77;147.10;;;9.60;86.70;;;;;;4968635;28;112797;-53
2024/02/18 01:32:06;;;;;;;215.82;153.00;;;9.60;86.50;;;;;;4968707;28;112723;-52
2024/02/18 01:34:32;;;;;;;233.30;160.57;;;9.60;86.20;;;;;;4967419;28;114477;-53
2024/02/18 01:36:58;;;;;;;222.35;156.93;;;9.60;86.50;;;;;;4967625;28;112620;-52
2024/02/18 01:39:23;;;;;;;237.70;165.52;;;9.50;87.00;;;;;;4968667;28;113330;-53
2024/02/18 01:41:49;;;;;;;226.40;162.60;;;9.50;86.90;;;;;;4968379;28;112742;-53
2024/02/18 01:44:15;;;;;;;208.23;155.95;;;9.40;87.10;;;;;;4967426;28;113139;-53
2024/02/18 01:46:43;;;;;;;219.95;157.90;;;9.50;86.90;;;;;;4967462;28;112840;-53
2024/02/18 01:49:08;;;;;;;212.70;154.50;;;9.60;86.80;;;;;;4968262;28;113240;-53
2024/02/18 01:51:34;;;;;;;210.32;153.73;;;9.60;86.60;;;;;;4968022;28;112760;-53
2024/02/18 01:54:01;;;;;;;218.38;153.00;;;9.60;86.50;;;;;;4966922;28;114406;-53
2024/02/18 01:56:27;;;;;;;211.27;153.48;;;9.60;86.70;;;;;;4966931;28;112974;-52
2024/02/18 01:58:52;;;;;;;213.90;152.63;;;9.60;86.80;;;;;;4966812;28;113168;-53
2024/02/18 02:01:19;;;;;;;239.23;166.27;;;9.70;86.70;;;;;;4968092;28;112733;-53
2024/02/18 02:03:46;;;;;;;227.85;160.38;;;9.70;86.90;;;;;;4966990;28;115510;-53
2024/02/18 02:06:14;;;;;;;223.52;158.82;;;9.70;87.00;;;;;;4967081;28;112787;-52
2024/02/18 02:08:40;;;;;;;228.32;162.15;;;9.80;87.10;;;;;;4967558;28;112745;-52
2024/02/18 02:11:06;;;;;;;215.93;153.90;;;9.70;87.10;;;;;;4968247;28;112676;-52
2024/02/18 02:13:32;;;;;;;230.93;161.02;;;9.70;87.10;;;;;;4966810;28;113374;-53
2024/02/18 02:15:58;;;;;;;227.82;162.82;;;9.80;87.10;;;;;;4966746;28;112882;-53
2024/02/18 02:18:24;;;;;;;257.15;175.18;;;9.80;87.20;;;;;;4967765;28;113013;-53
2024/02/18 02:20:50;;;;;;;226.18;160.32;;;9.70;87.30;;;;;;4967441;28;112650;-53
2024/02/18 02:23:16;;;;;;;231.20;167.63;;;9.80;87.50;;;;;;4967060;28;113686;-53
2024/02/18 02:25:42;;;;;;;225.02;155.88;;;9.80;87.30;;;;;;4966570;28;113737;-53
2024/02/18 02:28:24;;;;;;;227.48;159.00;;;9.60;86.70;;;;;;4967613;28;112758;-53
2024/02/18 02:30:50;;;;;;;222.32;158.98;;;9.50;87.20;;;;;;4967164;28;112777;-53
2024/02/18 02:33:20;;;;;;;224.38;159.73;;;9.60;87.10;;;;;;4966494;28;113701;-52
2024/02/18 02:35:46;;;;;;;222.70;160.07;;;9.60;87.30;;;;;;4966663;28;113055;-53
2024/02/18 02:38:12;;;;;;;241.23;171.27;;;9.60;87.20;;;;;;4967657;28;112946;-52
2024/02/18 02:40:38;;;;;;;215.75;154.73;;;9.60;87.30;;;;;;4967593;28;112661;-52
2024/02/18 02:43:04;;;;;;;207.95;152.10;;;9.70;87.10;;;;;;4966043;28;113153;-53
2024/02/18 02:45:31;;;;;;;200.52;145.77;;;9.80;86.30;;;;;;4966532;28;113285;-52
2024/02/18 02:47:56;;;;;;;203.95;150.88;;;9.80;86.40;;;;;;4967295;28;112862;-52
2024/02/18 02:50:22;;;;;;;204.93;148.40;;;9.60;86.70;;;;;;4967428;28;112700;-53
2024/02/18 02:52:48;;;;;;;208.90;149.90;;;9.60;86.80;;;;;;4966237;28;113433;-53
2024/02/18 02:55:14;;;;;;;211.25;152.80;;;9.60;86.80;;;;;;4966421;28;112648;-52
2024/02/18 02:57:40;;;;;;;218.93;155.60;;;9.70;86.90;;;;;;4967163;28;112935;-52
2024/02/18 03:00:09;;;;;;;227.80;160.43;;;9.70;87.00;;;;;;4967033;28;112813;-53
2024/02/18 03:02:41;;;;;;;227.68;162.98;;;9.80;87.00;;;;;;4965877;28;114976;-53
2024/02/18 03:05:09;;;;;;;234.95;167.73;;;9.80;87.00;;;;;;4966063;28;112912;-53
2024/02/18 03:07:34;;;;;;;226.40;163.48;;;9.80;87.00;;;;;;4966869;28;112897;-53
2024/02/18 03:10:00;;;;;;;229.02;165.68;;;9.80;87.10;;;;;;4967192;28;112649;-53
2024/02/18 03:12:26;;;;;;;242.95;173.40;;;9.90;86.70;;;;;;4966070;28;113486;-52
2024/02/18 03:14:52;;;;;;;237.30;171.95;;;9.90;87.10;;;;;;4965753;28;113663;-53
2024/02/18 03:17:19;;;;;;;251.40;183.48;;;9.90;87.20;;;;;;4967051;28;112507;-53
2024/02/18 03:19:45;;;;;;;239.27;172.82;;;9.90;87.20;;;;;;4966878;28;112851;-52
2024/02/18 03:22:10;;;;;;;251.75;180.27;;;9.90;87.20;;;;;;4965719;28;114939;-52
2024/02/18 03:24:39;;;;;;;240.02;173.75;;;9.90;87.20;;;;;;4966061;28;112903;-52
2024/02/18 03:27:06;;;;;;;218.23;162.98;;;9.90;87.20;;;;;;4966372;28;112800;-54
2024/02/18 03:29:32;;;;;;;234.50;169.65;;;9.80;87.20;;;;;;4965167;28;112782;-53
2024/02/18 03:31:58;;;;;;;225.75;164.25;;;9.90;86.80;;;;;;4964503;28;114325;-53
2024/02/18 03:34:24;;;;;;;237.02;172.55;;;9.90;86.80;;;;;;4965926;28;113058;-53
2024/02/18 03:36:49;;;;;;;238.68;167.80;;;9.80;86.90;;;;;;4966719;28;112619;-52
2024/02/18 03:39:15;;;;;;;227.82;167.13;;;9.80;87.10;;;;;;4966384;28;112946;-54
2024/02/18 03:41:41;;;;;;;240.77;172.70;;;9.80;87.10;;;;;;4965460;28;114346;-53
2024/02/18 03:44:06;;;;;;;245.32;174.85;;;9.90;87.10;;;;;;4965443;28;112895;-53
2024/02/18 03:46:32;;;;;;;218.18;161.05;;;9.90;87.20;;;;;;4966738;28;112513;-52
2024/02/18 03:48:58;;;;;;;236.50;172.20;;;9.90;87.10;;;;;;4966401;28;112753;-53
2024/02/18 03:51:23;;;;;;;234.80;171.18;;;9.90;87.00;;;;;;4965520;28;113745;-53
2024/02/18 03:53:49;;;;;;;242.07;172.77;;;9.90;87.00;;;;;;4965602;28;112603;-53
2024/02/18 03:56:15;;;;;;;225.60;167.32;;;9.90;87.10;;;;;;4965870;28;112698;-53
2024/02/18 03:58:40;;;;;;;237.10;171.65;;;9.90;86.90;;;;;;4966573;28;112808;-53
2024/02/18 04:01:06;;;;;;;242.68;176.45;;;9.90;86.90;;;;;;4965329;28;113202;-53
2024/02/18 04:03:32;;;;;;;229.75;166.70;;;9.80;87.10;;;;;;4965048;28;113994;-53
2024/02/18 04:05:57;;;;;;;229.38;169.80;;;9.80;87.20;;;;;;4966237;28;112840;-53
2024/02/18 04:08:23;;;;;;;247.60;177.60;;;9.80;87.10;;;;;;4966031;28;112690;-53
2024/02/18 04:10:49;;;;;;;226.82;165.68;;;9.80;87.30;;;;;;4965300;28;113279;-53
2024/02/18 04:13:15;;;;;;;229.45;163.32;;;9.70;87.20;;;;;;4965092;28;112909;-53
2024/02/18 04:15:41;;;;;;;232.93;169.15;;;9.70;87.30;;;;;;4966063;28;112836;-53
2024/02/18 04:18:07;;;;;;;228.57;164.85;;;9.70;87.20;;;;;;4966004;28;112863;-53
2024/02/18 04:20:32;;;;;;;231.65;167.90;;;9.70;87.40;;;;;;4964833;28;115452;-53
2024/02/18 04:22:58;;;;;;;227.02;165.77;;;9.70;87.40;;;;;;4965131;28;112855;-52
2024/02/18 04:25:24;;;;;;;234.35;171.10;;;9.70;87.40;;;;;;4965850;28;112662;-53
2024/02/18 04:27:50;;;;;;;240.15;171.52;;;9.80;87.30;;;;;;4965953;28;112855;-53
2024/02/18 04:30:15;;;;;;;230.48;166.70;;;9.70;87.30;;;;;;4964611;28;114893;-53
2024/02/18 04:32:42;;;;;;;225.27;165.68;;;9.70;87.00;;;;;;4965243;28;112759;-52
2024/02/18 04:35:08;;;;;;;232.13;162.80;;;9.70;87.10;;;;;;4965929;28;112569;-52
2024/02/18 04:37:34;;;;;;;243.30;174.23;;;9.60;87.40;;;;;;4964526;28;112862;-52
2024/02/18 04:39:59;;;;;;;248.80;175.43;;;9.70;87.40;;;;;;4964705;28;113322;-53
2024/02/18 04:42:25;;;;;;;255.35;183.23;;;9.60;87.50;;;;;;4965547;28;114548;-52
2024/02/18 04:44:51;;;;;;;234.68;173.07;;;9.70;87.60;;;;;;4969269;28;113087;-53
2024/02/18 04:47:17;;;;;;;219.93;163.70;;;9.70;87.60;;;;;;4969325;28;112792;-53
2024/02/18 04:49:42;;;;;;;218.82;162.93;;;9.80;87.30;;;;;;4968398;28;113518;-53
2024/02/18 04:52:08;;;;;;;234.20;173.00;;;9.80;87.20;;;;;;4967971;28;112547;-52
2024/02/18 04:54:34;;;;;;;217.57;160.98;;;9.80;87.20;;;;;;4968633;28;112693;-53
2024/02/18 04:57:00;;;;;;;218.02;166.05;;;9.80;87.40;;;;;;4968502;28;112780;-53
2024/02/18 04:59:26;;;;;;;227.85;167.00;;;9.80;87.40;;;;;;4967317;28;114541;-53
2024/02/18 05:01:53;;;;;;;225.93;164.13;;;9.80;87.30;;;;;;4967378;28;113740;-53
2024/02/18 05:04:19;;;;;;;219.55;165.00;;;9.80;87.20;;;;;;4968103;28;113762;-53
2024/02/18 05:06:48;;;;;;;215.68;162.60;;;9.80;87.20;;;;;;4968511;28;112949;-52
2024/02/18 05:09:14;;;;;;;213.40;157.45;;;9.80;87.10;;;;;;4967481;28;113301;-53
2024/02/18 05:11:39;;;;;;;212.02;156.75;;;9.70;86.80;;;;;;4967478;28;113036;-52
2024/02/18 05:14:05;;;;;;;208.77;155.30;;;9.60;86.90;;;;;;4968395;28;112776;-52
2024/02/18 05:16:31;;;;;;;225.05;162.95;;;9.70;87.10;;;;;;4968682;28;113227;-53
2024/02/18 05:18:56;;;;;;;216.77;156.77;;;9.70;87.10;;;;;;4967640;28;113554;-53
2024/02/18 05:21:23;;;;;;;218.70;159.27;;;9.70;87.20;;;;;;4967337;28;112831;-53
2024/02/18 05:23:50;;;;;;;210.13;159.02;;;9.70;87.20;;;;;;4968107;28;112756;-52
2024/02/18 05:26:16;;;;;;;216.73;160.55;;;9.70;87.20;;;;;;4967860;28;112859;-53
2024/02/18 05:28:42;;;;;;;218.82;162.93;;;9.70;87.30;;;;;;4967612;28;113544;-53
2024/02/18 05:31:22;;;;;;;215.02;163.32;;;9.70;87.40;;;;;;4967388;28;112862;-52
2024/02/18 05:33:52;;;;;;;211.77;161.88;;;9.70;87.30;;;;;;4967768;28;112593;-53
2024/02/18 05:36:20;;;;;;;220.70;168.32;;;9.80;87.10;;;;;;4968204;28;112939;-53
2024/02/18 05:38:46;;;;;;;217.18;164.35;;;9.80;87.10;;;;;;4967252;28;113513;-53
2024/02/18 05:41:12;;;;;;;214.88;164.80;;;9.70;87.10;;;;;;4966954;28;113656;-52
2024/02/18 05:43:38;;;;;;;203.02;157.48;;;9.80;87.10;;;;;;4968183;28;113024;-53
2024/02/18 05:46:06;;;;;;;211.45;164.07;;;9.80;87.20;;;;;;4967901;28;112814;-52
2024/02/18 05:48:31;;;;;;;205.07;157.43;;;9.80;87.10;;;;;;4966852;28;113220;-53
2024/02/18 05:50:57;;;;;;;208.00;160.38;;;9.80;87.00;;;;;;4966975;28;113187;-53
2024/02/18 05:53:24;;;;;;;195.70;152.82;;;9.80;86.80;;;;;;4967671;28;112882;-53
2024/02/18 05:55:49;;;;;;;194.00;151.90;;;9.80;86.50;;;;;;4967049;28;112728;-53
2024/02/18 05:58:16;;;;;;;195.60;152.00;;;9.70;86.90;;;;;;4966517;28;114304;-53
2024/02/18 06:00:42;;;;;;;204.98;153.52;;;9.80;86.90;;;;;;4966934;28;113256;-52
2024/02/18 06:03:08;;;;;;;199.85;154.23;;;9.80;86.70;;;;;;4967191;28;112537;-53
2024/02/18 06:05:34;;;;;;;200.40;154.65;;;9.80;86.80;;;;;;4967692;28;112755;-53
2024/02/18 06:08:00;;;;;;;198.75;155.45;;;9.80;86.60;;;;;;4966776;28;113739;-53
2024/02/18 06:10:26;;;;;;;201.52;157.00;;;9.80;86.70;;;;;;4966612;28;112711;-53
2024/02/18 06:12:52;;;;;;;219.82;164.85;;;9.70;86.90;;;;;;4967486;28;112946;-53
2024/02/18 06:15:17;;;;;;;196.77;150.60;;;9.70;87.00;;;;;;4967124;28;112740;-53
2024/02/18 06:17:43;;;;;;;190.40;148.13;;;9.70;87.00;;;;;;4966215;28;115067;-52
2024/02/18 06:20:13;;;;;;;191.73;146.80;;;9.80;86.90;;;;;;4966330;28;112949;-52
2024/02/18 06:22:39;;;;;;;181.05;141.07;;;9.80;86.40;;;;;;4967100;28;112860;-52
2024/02/18 06:25:05;;;;;;;167.25;131.73;;;9.80;86.10;;;;;;4967129;28;112645;-53
2024/02/18 06:27:31;;;;;;;153.88;126.95;;;9.80;86.00;;;;;;4966390;28;113688;-52
2024/02/18 06:29:58;;;;;;;150.13;122.15;;;9.80;85.60;;;;;;4966680;28;113755;-53
2024/02/18 06:32:25;;;;;;;138.38;112.95;;;9.80;85.30;;;;;;4967056;28;113222;-52
2024/02/18 06:34:50;;;;;;;140.93;114.72;;;9.90;84.80;;;;;;4965676;28;112956;-53
2024/02/18 06:37:16;;;;;;;140.82;115.57;;;9.90;84.80;;;;;;4966527;28;113158;-53
2024/02/18 06:39:42;;;;;;;137.05;113.22;;;9.90;84.90;;;;;;4964456;28;113994;-53
2024/02/18 06:42:08;;;;;;;141.88;114.63;;;9.90;84.70;;;;;;4966698;28;112701;-52
2024/02/18 06:44:33;;;;;;;133.30;110.93;;;10.00;84.80;;;;;;4966983;28;112688;-53
2024/02/18 06:46:59;;;;;;;128.70;109.20;;;10.00;84.60;;;;;;4965750;28;113197;-52
2024/02/18 06:49:25;;;;;;;122.10;101.15;;;10.10;84.50;;;;;;4965909;28;113452;-53
2024/02/18 06:51:50;;;;;;;111.07;93.88;;;10.10;84.20;;;;;;4966524;28;112886;-52
2024/02/18 06:54:16;;;;;;;109.82;95.43;;;10.20;83.70;;;;;;4967347;28;112869;-53
2024/02/18 06:56:42;;;;;;;111.72;91.40;;;10.30;83.50;;;;;;4966866;28;113169;-52
2024/02/18 06:59:07;;;;;;;97.28;86.13;;;10.30;83.50;;;;;;4966263;28;112749;-53
2024/02/18 07:01:33;;;;;;;92.38;82.15;;;10.50;82.90;;;;;;4967431;28;112626;-52
2024/02/18 07:04:00;;;;;;;97.25;82.15;;;10.60;82.00;;;;;;4967095;28;112610;-52
2024/02/18 07:06:26;;;;;;;86.70;76.00;;;10.70;81.80;;;;;;4965975;28;113181;-53
2024/02/18 07:08:51;;;;;;;80.25;68.40;;;10.80;81.20;;;;;;4966526;28;112652;-53
2024/02/18 07:11:17;;;;;;;77.97;67.72;;;10.90;80.40;;;;;;4966994;28;112630;-53
2024/02/18 07:13:43;;;;;;;95.10;82.65;;;11.10;80.20;;;;;;4967266;28;112700;-53
2024/02/18 07:16:09;;;;;;;104.00;90.80;;;11.10;80.70;;;;;;4966003;28;113261;-53
2024/02/18 07:18:35;;;;;;;108.45;95.22;;;11.20;80.80;;;;;;4965781;28;114205;-53
2024/02/18 07:21:01;;;;;;;103.22;92.00;;;11.20;81.80;;;;;;4967030;28;113830;-52
2024/02/18 07:23:27;;;;;;;101.38;87.82;;;11.30;81.60;;;;;;4966937;28;112725;-53
2024/02/18 07:25:53;;;;;;;98.35;87.63;;;11.40;81.40;;;;;;4966245;28;113549;-53
2024/02/18 07:28:19;;;;;;;87.25;77.93;;;11.50;81.50;;;;;;4965757;28;112830;-53
2024/02/18 07:30:45;;;;;;;80.55;69.53;;;11.80;80.50;;;;;;4966491;28;112859;-52
2024/02/18 07:33:10;;;;;;;79.03;70.25;;;11.90;79.60;;;;;;4967013;28;112809;-52
2024/02/18 07:35:36;;;;;;;78.82;68.97;;;12.00;79.00;;;;;;4966384;28;113636;-55
2024/02/18 07:38:02;;;;;;;73.18;65.15;;;12.00;79.50;;;;;;4965549;28;113714;-53
2024/02/18 07:40:28;;;;;;;72.85;62.22;;;12.20;78.30;;;;;;4966575;28;112883;-53
2024/02/18 07:42:53;;;;;;;66.47;57.22;;;12.40;77.50;;;;;;4966988;28;112788;-52
2024/02/18 07:45:19;;;;;;;66.65;58.35;;;12.60;76.30;;;;;;4965753;28;113157;-53
2024/02/18 07:47:45;;;;;;;67.85;60.53;;;12.80;75.70;;;;;;4965550;28;113235;-53
2024/02/18 07:50:11;;;;;;;70.55;59.85;;;12.90;75.90;;;;;;4966660;28;112843;-53
2024/02/18 07:52:37;;;;;;;62.95;56.45;;;13.00;75.70;;;;;;4966318;28;113052;-53
2024/02/18 07:55:03;;;;;;;62.58;54.55;;;13.00;76.00;;;;;;4965844;28;113316;-53
2024/02/18 07:57:28;;;;;;;59.35;52.90;;;13.30;75.50;;;;;;4965613;28;113375;-53
2024/02/18 07:59:54;;;;;;;59.35;52.97;;;13.30;74.30;;;;;;4966293;28;112815;-53
2024/02/18 08:02:21;;;;;;;59.30;52.92;;;13.30;73.80;;;;;;4966299;28;112730;-53
2024/02/18 08:04:47;;;;;;;60.38;52.75;;;13.30;74.20;;;;;;4965232;28;113264;-53
2024/02/18 08:07:12;;;;;;;56.00;49.92;;;13.40;74.00;;;;;;4965740;28;112956;-53
2024/02/18 08:09:38;;;;;;;56.05;50.03;;;13.40;74.30;;;;;;4966385;28;112834;-53
2024/02/18 08:12:04;;;;;;;52.50;47.00;;;13.60;74.10;;;;;;4965951;28;112940;-53
2024/02/18 08:14:30;;;;;;;55.65;45.47;;;13.80;73.60;;;;;;4963573;28;114499;-53
2024/02/18 08:16:56;;;;;;;50.97;45.55;;;13.90;73.20;;;;;;4964556;28;114235;-53
2024/02/18 08:19:22;;;;;;;49.50;44.15;;;13.90;73.00;;;;;;4965749;28;112815;-53
2024/02/18 08:21:47;;;;;;;46.75;41.78;;;14.10;72.30;;;;;;4966095;28;112895;-53
2024/02/18 08:24:14;;;;;;;49.72;42.83;;;14.10;72.30;;;;;;4953612;28;114659;-53
2024/02/18 08:26:40;;;;;;;48.60;42.00;;;14.20;72.30;;;;;;4957905;28;112778;-53
2024/02/18 08:29:07;;;;;;;44.38;39.63;;;14.20;72.10;;;;;;4955754;28;112701;-53
2024/02/18 08:31:33;;;;;;;43.33;36.03;;;14.30;71.90;;;;;;4959152;28;112853;-53
2024/02/18 08:34:01;;;;;;;37.15;33.35;;;14.50;70.70;;;;;;4954395;28;114612;-53
2024/02/18 08:36:27;;;;;;;36.20;32.35;;;14.70;69.50;;;;;;4957866;28;113949;-53
2024/02/18 08:38:53;;;;;;;35.80;31.98;;;15.00;68.40;;;;;;4958544;28;112742;-53
2024/02/18 08:41:19;;;;;;;36.88;30.58;;;15.10;67.90;;;;;;4956904;28;112784;-53
2024/02/18 08:43:51;;;;;;;33.03;29.65;;;15.50;67.40;;;;;;4954808;28;113246;-53
2024/02/18 08:46:16;;;;;;;34.42;29.17;;;15.90;66.70;;;;;;4960931;28;114281;-53
2024/02/18 08:48:42;;;;;;;30.52;27.42;;;16.00;66.40;;;;;;4960660;28;112618;-53
2024/02/18 08:51:08;;;;;;;29.55;26.65;;;16.30;66.50;;;;;;4965800;28;112849;-53
2024/02/18 08:53:36;;;;;;;28.00;25.33;;;16.50;64.30;;;;;;4964655;28;114314;-53
2024/02/18 08:56:03;;;;;;;22.85;20.55;;;16.60;64.50;;;;;;4964577;28;112888;-53
2024/02/18 08:58:31;;;;;;;22.52;20.23;;;16.70;62.00;;;;;;4964555;28;112700;-53
2024/02/18 09:00:57;;;;;;;22.80;20.58;;;16.40;62.50;;;;;;4965561;28;112879;-53
2024/02/18 09:03:23;;;;;;;22.02;19.73;;;16.70;62.60;;;;;;4964450;28;114440;-53
2024/02/18 09:05:49;;;;;;;21.38;19.05;;;17.10;61.80;;;;;;4964503;28;112937;-53
2024/02/18 09:08:14;;;;;;;19.80;17.73;;;17.30;61.30;;;;;;4965330;28;113403;-53
2024/02/18 09:10:40;;;;;;;20.45;18.55;;;17.50;60.10;;;;;;4965349;28;112783;-53
2024/02/18 09:13:06;;;;;;;17.65;15.85;;;17.50;59.70;;;;;;4964727;28;113342;-53
2024/02/18 09:15:32;;;;;;;17.45;15.68;;;17.70;58.70;;;;;;4953636;28;113016;-53
2024/02/18 09:17:58;;;;;;;16.77;15.05;;;17.90;57.70;;;;;;4947712;28;112816;-53
2024/02/18 09:20:25;;;;;;;17.25;14.63;;;17.90;57.20;;;;;;4959749;28;112991;-53
2024/02/18 09:22:50;;;;;;;17.17;15.48;;;18.10;57.80;;;;;;4959981;28;114587;-53
2024/02/18 09:25:16;;;;;;;16.42;14.85;;;18.30;57.60;;;;;;4955003;28;113134;-54
2024/02/18 09:27:42;;;;;;;14.95;13.40;;;18.50;56.50;;;;;;4957874;28;112915;-53
2024/02/18 09:30:08;;;;;;;12.88;11.50;;;18.80;55.90;;;;;;4953597;28;112797;-53
2024/02/18 09:32:34;;;;;;;11.57;10.30;;;18.90;54.20;;;;;;4961215;28;114724;-53
2024/02/18 09:34:59;;;;;;;11.02;9.98;;;19.40;53.10;;;;;;4954714;28;112818;-54
2024/02/18 09:37:25;;;;;;;9.45;8.45;;;20.50;51.50;;;;;;4965468;28;113121;-54
2024/02/18 09:39:51;;;;;;;9.20;8.30;;;22.90;45.50;;;;;;4968899;28;112646;-54
2024/02/18 09:42:17;;;;;;;8.20;7.50;;;25.30;41.40;;;;;;4967646;28;113235;-54
2024/02/18 09:44:45;;;;;;;9.02;7.97;;;28.10;36.80;;;;;;4968266;28;112948;-54
2024/02/18 09:47:14;;;;;;;7.97;7.20;;;30.40;33.60;;;;;;4969180;28;112768;-54
2024/02/18 09:49:40;;;;;;;9.50;7.72;;;31.80;31.70;;;;;;4968395;28;113295;-55
2024/02/18 09:52:06;;;;;;;8.50;7.70;;;32.70;30.20;;;;;;4968199;28;113299;-55
2024/02/18 09:54:34;;;;;;;8.77;7.90;;;33.40;28.90;;;;;;4967747;28;113121;-55
2024/02/18 09:57:03;;;;;;;9.00;8.10;;;33.90;29.00;;;;;;4968865;28;112627;-55
2024/02/18 09:59:29;;;;;;;8.85;8.15;;;34.10;28.00;;;;;;4968793;28;112937;-56
2024/02/18 10:01:58;;;;;;;8.70;8.00;;;33.40;28.10;;;;;;4967765;28;113236;-54
2024/02/18 10:04:25;;;;;;;8.40;7.80;;;33.90;28.10;;;;;;4967527;28;113692;-54
2024/02/18 10:06:54;;;;;;;9.38;8.68;;;34.20;27.10;;;;;;4968608;28;112915;-54
2024/02/18 10:09:24;;;;;;;9.40;8.63;;;34.40;27.40;;;;;;4968524;28;112764;-54
2024/02/18 10:11:51;;;;;;;18.80;17.02;;;35.10;26.30;;;;;;4967661;28;113149;-54
2024/02/18 10:14:25;;;;;;;11.30;10.25;;;35.60;26.30;;;;;;4966490;28;113171;-54
2024/02/18 10:16:52;;;;;;;7.13;6.55;;;35.20;26.20;;;;;;4967681;28;112627;-54
2024/02/18 10:19:18;;;;;;;7.57;6.97;;;35.80;25.60;;;;;;4967644;28;112926;-54
2024/02/18 10:21:44;;;;;;;6.43;5.93;;;35.70;25.70;;;;;;4967342;28;114387;-53
2024/02/18 10:24:11;;;;;;;6.57;6.07;;;36.50;25.30;;;;;;4966881;28;113028;-54
2024/02/18 10:26:38;;;;;;;6.03;5.53;;;35.10;26.30;;;;;;4968267;28;113240;-53
2024/02/18 10:29:05;;;;;;;6.57;5.97;;;31.90;28.60;;;;;;4968244;28;113142;-53
2024/02/18 10:31:32;;;;;;;8.60;7.85;;;28.40;32.70;;;;;;4966883;28;114112;-53
2024/02/18 10:33:57;;;;;;;8.38;7.68;;;26.40;35.90;;;;;;4966772;28;113287;-53
2024/02/18 10:36:26;;;;;;;8.02;7.43;;;25.40;37.20;;;;;;4968618;28;112764;-53
2024/02/18 10:38:58;;;;;;;8.02;7.30;;;25.90;37.30;;;;;;4967691;28;112742;-53
2024/02/18 10:41:39;;;;;;;7.70;7.10;;;27.10;35.70;;;;;;4955782;28;114491;-53
2024/02/18 10:44:13;;;;;;;7.93;7.22;;;27.90;35.10;;;;;;4965636;28;113909;-53
2024/02/18 10:46:41;;;;;;;7.78;7.15;;;26.20;37.30;;;;;;4967994;28;113027;-53
2024/02/18 10:49:27;;;;;;;7.00;6.40;;;29.00;34.00;;;;;;4968221;28;113103;-53
2024/02/18 10:52:14;;;;;;;6.70;6.10;;;30.50;31.10;;;;;;4958429;28;114611;-53
2024/02/18 10:54:44;;;;;;;6.18;5.45;;;31.20;30.80;;;;;;4967114;28;113100;-54
2024/02/18 10:57:12;;;;;;;4.82;4.43;;;33.70;28.40;;;;;;4968006;28;112504;-54
2024/02/18 10:59:49;;;;;;;5.68;5.18;;;30.80;30.50;;;;;;4965267;28;112736;-54
2024/02/18 11:02:23;;;;;;;5.95;5.30;;;31.80;29.50;;;;;;4967220;28;114473;-53
2024/02/18 11:04:49;;;;;;;8.60;5.97;;;27.90;33.30;;;;;;4966707;28;115201;-53
2024/02/18 11:07:16;;;;;;;6.30;5.80;;;30.90;31.00;;;;;;4967413;28;112919;-54
2024/02/18 11:09:45;;;;;;;6.32;5.82;;;28.40;33.20;;;;;;4967793;28;112698;-54
2024/02/18 11:12:13;;;;;;;6.03;5.60;;;30.90;31.20;;;;;;4966860;28;114347;-54
2024/02/18 11:14:39;;;;;;;6.75;6.15;;;35.30;26.10;;;;;;4966729;28;113717;-54
2024/02/18 11:17:05;;;;;;;6.03;5.60;;;36.70;25.00;;;;;;4967957;28;113104;-54
2024/02/18 11:19:32;;;;;;;6.25;5.80;;;30.60;30.20;;;;;;4967729;28;112785;-53
2024/02/18 11:21:59;;;;;;;7.13;6.53;;;28.50;33.40;;;;;;4966557;28;113356;-54
2024/02/18 11:24:25;;;;;;;7.43;6.82;;;34.00;26.20;;;;;;4966667;28;113235;-54
2024/02/18 11:26:53;;;;;;;12.20;10.93;;;35.50;26.00;;;;;;4967477;28;112505;-54
2024/02/18 11:29:19;;;;;;;7.43;6.82;;;35.10;25.80;;;;;;4967108;28;112956;-54
2024/02/18 11:31:45;;;;;;;7.40;6.70;;;32.60;28.70;;;;;;4966434;28;114998;-54
2024/02/18 11:34:11;;;;;;;7.43;6.82;;;31.50;29.50;;;;;;4966059;28;114431;-54
2024/02/18 11:36:37;;;;;;;7.80;7.20;;;29.80;31.70;;;;;;4967975;28;112991;-54
2024/02/18 11:39:05;;;;;;;8.48;7.78;;;30.90;30.50;;;;;;4967623;28;112561;-54
2024/02/18 11:41:33;;;;;;;7.30;6.70;;;32.70;29.00;;;;;;4966528;28;113261;-54
2024/02/18 11:44:05;;;;;;;8.82;7.03;;;36.40;26.00;;;;;;4965980;28;114348;-54
2024/02/18 11:46:31;;;;;;;7.18;6.57;;;38.30;24.80;;;;;;4967568;28;113178;-54
2024/02/18 11:48:57;;;;;;;6.75;6.25;;;40.30;22.70;;;;;;4967591;28;112670;-54
2024/02/18 11:51:25;;;;;;;6.22;5.80;;;40.90;22.60;;;;;;4966011;28;114465;-54
2024/02/18 11:53:54;;;;;;;7.00;6.47;;;40.60;22.40;;;;;;4966122;28;112627;-54
2024/02/18 11:56:19;;;;;;;7.03;6.43;;;39.50;23.30;;;;;;4966893;28;112554;-55
2024/02/18 11:58:48;;;;;;;7.03;6.53;;;40.90;22.40;;;;;;4966903;28;112863;-54
2024/02/18 12:01:19;;;;;;;6.22;5.82;;;41.50;21.30;;;;;;4966391;28;113952;-54
2024/02/18 12:03:48;;;;;;;7.00;6.50;;;41.80;20.60;;;;;;4965927;28;114880;-55
2024/02/18 12:06:14;;;;;;;6.85;6.35;;;42.50;21.00;;;;;;4966859;28;112744;-56
2024/02/18 12:08:41;;;;;;;6.35;5.88;;;42.40;20.60;;;;;;4967134;28;113354;-54
2024/02/18 12:11:07;;;;;;;15.23;5.13;;;42.10;20.90;;;;;;4966295;28;113190;-54
2024/02/18 12:13:34;;;;;;;5.00;4.55;;;43.00;20.50;;;;;;4966757;28;112796;-54